Terminal Aerodrome Forecast
Issued by NWS Charleston, WV

Current Version | Previous Version | Text Only | Print | Product List | Glossary Off
Versions: 1 2 3 4 5 6 7 8 9 10 11 12 13 14 15 16 17 18 19 20 21 22 23

679
FTUS41 KRLX 171502 AAA
TAFPKB
TAF AMD
KPKB 171502Z 1715/1812 20010G17KT 6SM -SHRA BKN015
     FM172100 23008KT P6SM VCSH BKN025
     FM180200 26007KT P6SM BKN015=

USA.gov is the U.S. government's official web portal to all federal, state and local government web resources and services.